Time;durP1;ratioP1;P1;durP2;ratioP2;P2;SDS_P1;SDS_P2;PMS_P1;PMS_P2;Temp;Humidity;BMP_temperature;BMP_pressure;BME280_temperature;BME280_humidity;BME280_pressure;Samples;Min_cycle;Max_cycle;Signal;HPM_P1;HPM_P2
2023/08/01 00:01:35;;;;;;;7.85;2.83;;;16.50;99.90;;;;;;5102100;27;20108;-83
2023/08/01 00:04:04;;;;;;;6.63;2.50;;;16.40;99.90;;;;;;5100933;27;20114;-83
2023/08/01 00:06:29;;;;;;;10.55;3.42;;;16.50;99.90;;;;;;5095380;28;20442;-84
2023/08/01 00:08:55;;;;;;;6.72;2.85;;;16.50;99.90;;;;;;5094863;28;20051;-83
2023/08/01 00:11:21;;;;;;;6.88;2.95;;;16.50;99.90;;;;;;5088606;28;20052;-83
2023/08/01 00:13:46;;;;;;;9.70;2.95;;;16.50;99.90;;;;;;5101223;28;20050;-84
2023/08/01 00:16:12;;;;;;;11.15;3.53;;;16.50;99.90;;;;;;5099820;28;20035;-83
2023/08/01 00:18:38;;;;;;;8.85;3.40;;;16.50;99.90;;;;;;5083393;28;20123;-84
2023/08/01 00:21:05;;;;;;;7.03;3.45;;;16.50;99.90;;;;;;5077425;28;20107;-83
2023/08/01 00:23:31;;;;;;;8.30;3.38;;;16.40;99.90;;;;;;5081312;28;20042;-84
2023/08/01 00:25:57;;;;;;;9.20;3.67;;;16.40;99.90;;;;;;5087982;28;20409;-84
2023/08/01 00:28:23;;;;;;;8.23;3.08;;;16.40;99.90;;;;;;5082518;28;20055;-83
2023/08/01 00:30:48;;;;;;;8.32;3.58;;;16.40;99.90;;;;;;5100801;28;20043;-83
2023/08/01 00:33:14;;;;;;;8.23;3.53;;;16.40;99.90;;;;;;5086322;28;20118;-83
2023/08/01 00:35:41;;;;;;;5.18;3.20;;;16.20;99.90;;;;;;5095584;28;20055;-83
2023/08/01 00:38:06;;;;;;;7.07;3.30;;;16.10;99.90;;;;;;5071842;28;20032;-83
2023/08/01 00:40:35;;;;;;;10.23;3.72;;;16.10;99.90;;;;;;5104270;28;20050;-83
2023/08/01 00:43:01;;;;;;;8.57;3.03;;;16.00;99.90;;;;;;5098691;28;20387;-83
2023/08/01 00:45:28;;;;;;;9.82;2.97;;;16.00;99.90;;;;;;5104282;27;20056;-83
2023/08/01 00:47:55;;;;;;;5.78;3.45;;;16.00;99.90;;;;;;5091081;28;20039;-83
2023/08/01 00:50:22;;;;;;;9.48;3.67;;;15.90;99.90;;;;;;5096551;27;20039;-82
2023/08/01 00:52:50;;;;;;;6.80;3.47;;;15.90;99.90;;;;;;5101906;27;20043;-83
2023/08/01 00:55:16;;;;;;;8.57;3.13;;;15.90;99.90;;;;;;5108263;27;20031;-83
2023/08/01 00:57:42;;;;;;;10.05;3.35;;;15.90;99.90;;;;;;5109706;27;20387;-83
2023/08/01 01:00:08;;;;;;;5.35;3.28;;;15.90;99.90;;;;;;5096597;27;20403;-83
2023/08/01 01:02:34;;;;;;;9.30;3.88;;;15.90;99.90;;;;;;5092081;27;20044;-83
2023/08/01 01:05:01;;;;;;;5.70;3.28;;;15.90;99.90;;;;;;5106383;27;20065;-83
2023/08/01 01:07:31;;;;;;;7.57;3.30;;;15.90;99.90;;;;;;5088636;27;20043;-83
2023/08/01 01:09:58;;;;;;;7.05;3.67;;;15.80;99.90;;;;;;5120652;27;20041;-82
2023/08/01 01:12:24;;;;;;;5.78;2.90;;;15.80;99.90;;;;;;5089393;27;20039;-82
2023/08/01 01:14:49;;;;;;;10.25;3.67;;;15.80;99.90;;;;;;5095360;27;20406;-82
2023/08/01 01:17:15;;;;;;;7.38;3.58;;;15.90;99.90;;;;;;5106131;27;20031;-82
2023/08/01 01:19:41;;;;;;;7.30;2.88;;;15.90;99.90;;;;;;5077933;27;20105;-82
2023/08/01 01:22:09;;;;;;;6.80;3.42;;;15.80;99.90;;;;;;5091285;27;20061;-82
2023/08/01 01:24:36;;;;;;;8.38;3.83;;;15.80;99.90;;;;;;5089919;27;20553;-82
2023/08/01 01:27:04;;;;;;;5.65;2.78;;;15.80;99.90;;;;;;5103250;27;20083;-83
2023/08/01 01:29:32;;;;;;;5.70;3.53;;;15.70;99.90;;;;;;5086889;27;20032;-82
2023/08/01 01:32:00;;;;;;;6.80;2.95;;;15.70;99.90;;;;;;5086114;27;20460;-82
2023/08/01 01:34:29;;;;;;;8.02;3.08;;;15.70;99.90;;;;;;5107719;27;20630;-82
2023/08/01 01:36:55;;;;;;;7.53;3.30;;;15.70;99.90;;;;;;5097825;27;20028;-82
2023/08/01 01:39:21;;;;;;;6.75;3.42;;;15.60;99.90;;;;;;5089117;28;20451;-82
2023/08/01 01:41:46;;;;;;;6.97;3.40;;;15.60;99.90;;;;;;5109891;27;20050;-82
2023/08/01 01:44:12;;;;;;;11.20;3.45;;;15.60;99.90;;;;;;5082628;28;20056;-82
2023/08/01 01:46:38;;;;;;;6.78;3.08;;;15.60;99.90;;;;;;5065021;28;20130;-82
2023/08/01 01:49:03;;;;;;;5.30;2.95;;;15.60;99.90;;;;;;5070317;28;20515;-82
2023/08/01 01:51:32;;;;;;;8.57;3.08;;;15.60;99.90;;;;;;5087886;28;20166;-82
2023/08/01 01:53:57;;;;;;;6.82;2.67;;;15.50;99.90;;;;;;5084021;28;20047;-82
2023/08/01 01:56:23;;;;;;;7.13;2.90;;;15.50;99.90;;;;;;5076008;28;20535;-82
2023/08/01 01:58:49;;;;;;;4.60;3.03;;;15.50;99.90;;;;;;5074904;28;20051;-82
2023/08/01 02:01:14;;;;;;;7.03;3.00;;;15.50;99.90;;;;;;5089372;28;20065;-82
2023/08/01 02:03:40;;;;;;;4.95;2.80;;;15.50;99.90;;;;;;5072450;28;20324;-81
2023/08/01 02:06:06;;;;;;;6.05;2.88;;;15.40;99.90;;;;;;5088920;28;20035;-82
2023/08/01 02:08:32;;;;;;;5.15;2.85;;;15.40;99.90;;;;;;5090311;28;20035;-82
2023/08/01 02:11:00;;;;;;;5.30;2.85;;;15.40;99.90;;;;;;5070036;28;20043;-82
2023/08/01 02:13:27;;;;;;;9.98;3.33;;;15.30;99.90;;;;;;5059390;28;20063;-83
2023/08/01 02:15:54;;;;;;;6.82;3.20;;;15.30;99.90;;;;;;5090114;28;20040;-82
2023/08/01 02:18:19;;;;;;;6.57;3.00;;;15.20;99.90;;;;;;5069491;28;20043;-82
2023/08/01 02:20:45;;;;;;;7.82;3.58;;;15.20;99.90;;;;;;5085672;28;20032;-82
2023/08/01 02:23:10;;;;;;;9.02;3.13;;;15.10;99.90;;;;;;5072649;28;20076;-82
2023/08/01 02:25:40;;;;;;;6.50;2.88;;;15.10;99.90;;;;;;5092654;28;20054;-82
2023/08/01 02:28:06;;;;;;;7.35;3.30;;;15.00;99.90;;;;;;5075353;28;20070;-82
2023/08/01 02:30:32;;;;;;;8.10;3.22;;;15.00;99.90;;;;;;5076327;28;20508;-82
2023/08/01 02:32:58;;;;;;;5.53;2.90;;;15.00;99.90;;;;;;5088753;28;20028;-82
2023/08/01 02:35:23;;;;;;;6.68;2.65;;;14.90;99.90;;;;;;5077623;28;20104;-82
2023/08/01 02:37:49;;;;;;;5.40;2.88;;;14.90;99.90;;;;;;5082994;28;20040;-82
2023/08/01 02:40:15;;;;;;;6.55;3.03;;;14.80;99.90;;;;;;5086444;28;20449;-82
2023/08/01 02:42:40;;;;;;;8.88;3.35;;;14.80;99.90;;;;;;5089915;28;20093;-82
2023/08/01 02:45:06;;;;;;;9.98;3.50;;;14.80;99.90;;;;;;5072410;28;20124;-82
2023/08/01 02:47:32;;;;;;;8.48;2.88;;;14.80;99.90;;;;;;5097735;27;20043;-82
2023/08/01 02:49:58;;;;;;;8.75;3.38;;;14.80;99.90;;;;;;5086210;27;20062;-82
2023/08/01 02:52:23;;;;;;;8.73;3.55;;;14.70;99.90;;;;;;5107822;27;20092;-82
2023/08/01 02:54:49;;;;;;;7.72;3.45;;;14.70;99.90;;;;;;5104849;27;20574;-82
2023/08/01 02:57:15;;;;;;;9.10;3.15;;;14.70;99.90;;;;;;5086398;27;20432;-83
2023/08/01 02:59:40;;;;;;;10.50;3.53;;;14.80;99.90;;;;;;5112215;27;20039;-82
2023/08/01 03:02:06;;;;;;;7.28;3.20;;;14.70;99.90;;;;;;5105088;27;20036;-82
2023/08/01 03:04:32;;;;;;;9.73;3.90;;;14.70;99.90;;;;;;5111651;27;20043;-83
2023/08/01 03:06:57;;;;;;;9.77;3.53;;;14.70;99.90;;;;;;5085146;27;20049;-83
2023/08/01 03:09:23;;;;;;;13.50;4.20;;;14.80;99.90;;;;;;5099742;27;20335;-82
2023/08/01 03:11:49;;;;;;;10.52;4.72;;;14.90;99.90;;;;;;5085984;27;20116;-82
2023/08/01 03:14:14;;;;;;;8.57;4.00;;;14.90;99.90;;;;;;5103179;27;20535;-82
2023/08/01 03:16:40;;;;;;;10.82;4.05;;;15.00;99.90;;;;;;5088873;27;20455;-82
2023/08/01 03:19:05;;;;;;;9.02;3.95;;;15.00;99.90;;;;;;5088454;27;20394;-82
2023/08/01 03:21:32;;;;;;;12.88;4.90;;;15.00;99.90;;;;;;5097788;27;20081;-83
2023/08/01 03:23:58;;;;;;;8.60;3.67;;;15.10;99.90;;;;;;5090035;27;20040;-83
2023/08/01 03:26:24;;;;;;;9.75;4.30;;;15.10;99.90;;;;;;5084711;27;20039;-83
2023/08/01 03:28:50;;;;;;;9.70;4.28;;;15.20;99.90;;;;;;5082401;28;20433;-83
2023/08/01 03:31:15;;;;;;;9.43;4.07;;;15.20;99.90;;;;;;5081773;27;20041;-83
2023/08/01 03:33:41;;;;;;;9.90;4.28;;;15.20;99.90;;;;;;5107378;27;20425;-82
2023/08/01 03:36:07;;;;;;;11.63;4.70;;;15.30;99.90;;;;;;5100364;27;20043;-83
2023/08/01 03:38:32;;;;;;;9.40;4.28;;;15.30;99.90;;;;;;5084494;28;20032;-82
2023/08/01 03:40:58;;;;;;;14.60;4.72;;;15.30;99.90;;;;;;5087121;27;20043;-82
2023/08/01 03:43:24;;;;;;;10.07;4.70;;;15.30;99.90;;;;;;5077203;27;20122;-83
2023/08/01 03:45:51;;;;;;;8.60;4.53;;;15.40;99.90;;;;;;5086175;27;20282;-82
2023/08/01 03:48:16;;;;;;;10.77;4.85;;;15.40;99.90;;;;;;5085528;27;20146;-82
2023/08/01 03:50:42;;;;;;;12.90;4.50;;;15.40;99.90;;;;;;5111882;27;20031;-82
2023/08/01 03:53:08;;;;;;;12.75;4.07;;;15.40;99.90;;;;;;5104596;27;20070;-82
2023/08/01 03:55:33;;;;;;;12.05;4.05;;;15.40;99.90;;;;;;5121060;27;20551;-82
2023/08/01 03:57:59;;;;;;;8.70;3.80;;;15.40;99.90;;;;;;5091426;27;20043;-82
2023/08/01 04:00:24;;;;;;;6.40;3.60;;;15.30;99.90;;;;;;5098758;27;20288;-82
2023/08/01 04:02:50;;;;;;;10.75;3.53;;;15.40;99.90;;;;;;5099808;27;20433;-82
2023/08/01 04:05:16;;;;;;;9.77;3.72;;;15.40;99.90;;;;;;5086579;27;20188;-82
2023/08/01 04:07:50;;;;;;;8.75;3.63;;;15.40;99.90;;;;;;5080947;27;20039;-82
2023/08/01 04:10:16;;;;;;;6.47;3.58;;;15.40;99.90;;;;;;5106781;27;20041;-82
2023/08/01 04:12:42;;;;;;;7.75;3.33;;;15.40;99.90;;;;;;5090476;27;20043;-82
2023/08/01 04:15:09;;;;;;;6.70;3.10;;;15.40;99.90;;;;;;5102737;27;20058;-82
2023/08/01 04:17:34;;;;;;;10.18;3.50;;;15.40;99.90;;;;;;5119455;27;20126;-82
2023/08/01 04:20:00;;;;;;;8.63;3.03;;;15.40;99.90;;;;;;5085348;27;20180;-82
2023/08/01 04:22:26;;;;;;;7.07;2.83;;;15.30;99.90;;;;;;5088943;27;20050;-82
2023/08/01 04:24:51;;;;;;;7.03;2.80;;;15.40;99.90;;;;;;5104960;27;20043;-82
2023/08/01 04:27:17;;;;;;;9.77;3.00;;;15.40;99.90;;;;;;5106981;27;20347;-81
2023/08/01 04:29:43;;;;;;;5.28;2.60;;;15.40;99.90;;;;;;5103711;27;20399;-82
2023/08/01 04:32:08;;;;;;;6.22;2.50;;;15.40;99.90;;;;;;5106965;27;20126;-81
2023/08/01 04:34:34;;;;;;;4.30;2.30;;;15.40;99.90;;;;;;5087574;27;20027;-82
2023/08/01 04:37:00;;;;;;;5.75;2.70;;;15.40;99.90;;;;;;5100888;27;20031;-82
2023/08/01 04:39:25;;;;;;;6.30;2.40;;;15.40;99.90;;;;;;5099096;27;20043;-82
2023/08/01 04:41:51;;;;;;;5.82;2.38;;;15.40;99.90;;;;;;5081433;27;20043;-82
2023/08/01 04:44:16;;;;;;;4.90;2.10;;;15.30;99.90;;;;;;5088004;27;20046;-82
2023/08/01 04:46:42;;;;;;;4.80;2.10;;;15.30;99.90;;;;;;5090492;27;20070;-82
2023/08/01 04:49:08;;;;;;;5.75;1.90;;;15.20;99.90;;;;;;5094818;27;20050;-82
2023/08/01 04:51:33;;;;;;;3.40;2.00;;;15.20;99.90;;;;;;5116017;27;20050;-82
2023/08/01 04:53:59;;;;;;;4.75;2.05;;;15.20;99.90;;;;;;5127157;27;20042;-81
2023/08/01 04:56:25;;;;;;;9.25;2.00;;;15.20;99.90;;;;;;5111080;27;20062;-82
2023/08/01 04:58:50;;;;;;;8.63;2.00;;;15.20;99.90;;;;;;5092580;27;20083;-82
2023/08/01 05:01:16;;;;;;;4.47;1.90;;;15.30;99.90;;;;;;5108227;27;20031;-81
2023/08/01 05:03:41;;;;;;;6.57;2.28;;;15.30;99.90;;;;;;5100744;27;20118;-82
2023/08/01 05:06:10;;;;;;;5.03;2.08;;;15.40;99.90;;;;;;5074631;27;20089;-82
2023/08/01 05:08:35;;;;;;;3.28;1.65;;;15.40;99.90;;;;;;5083157;27;20047;-82
2023/08/01 05:11:01;;;;;;;2.60;1.52;;;15.50;99.90;;;;;;5089326;27;20331;-82
2023/08/01 05:13:27;;;;;;;4.22;1.70;;;15.60;99.90;;;;;;5087175;27;20402;-82
2023/08/01 05:15:52;;;;;;;3.50;1.75;;;15.60;99.90;;;;;;5089681;27;20392;-82
2023/08/01 05:18:18;;;;;;;4.72;2.08;;;15.80;99.90;;;;;;5092068;27;20501;-81
2023/08/01 05:20:43;;;;;;;3.35;1.60;;;16.00;99.90;;;;;;5084097;27;20032;-81
2023/08/01 05:23:09;;;;;;;3.10;1.38;;;16.00;99.90;;;;;;5102547;27;20447;-82
2023/08/01 05:25:35;;;;;;;2.85;1.30;;;16.10;99.90;;;;;;5106047;27;20046;-82
2023/08/01 05:28:00;;;;;;;3.30;1.50;;;16.10;99.90;;;;;;5086751;27;20495;-81
2023/08/01 05:30:27;;;;;;;5.47;1.90;;;16.00;99.90;;;;;;5109981;27;20417;-82
2023/08/01 05:32:53;;;;;;;3.28;1.30;;;16.00;99.90;;;;;;5095244;27;20042;-81
2023/08/01 05:35:19;;;;;;;2.42;1.55;;;15.80;99.90;;;;;;5088632;27;20329;-81
2023/08/01 05:37:45;;;;;;;3.28;1.30;;;16.00;99.90;;;;;;5097602;27;20122;-82
2023/08/01 05:40:11;;;;;;;6.05;1.80;;;16.10;99.90;;;;;;5127800;27;20035;-81
2023/08/01 05:42:36;;;;;;;3.53;1.60;;;16.10;99.90;;;;;;5103419;27;20039;-81
2023/08/01 05:45:03;;;;;;;3.38;1.60;;;16.30;99.90;;;;;;5095367;27;20119;-81
2023/08/01 05:47:32;;;;;;;5.68;1.52;;;16.30;99.90;;;;;;5115982;27;20534;-82
2023/08/01 05:49:57;;;;;;;3.25;1.42;;;16.30;99.90;;;;;;5129594;27;21012;-81
2023/08/01 05:52:24;;;;;;;3.67;1.67;;;16.50;99.90;;;;;;5125621;27;20035;-82
2023/08/01 05:54:49;;;;;;;2.85;1.23;;;16.60;99.90;;;;;;5086974;27;20378;-81
2023/08/01 05:57:15;;;;;;;2.40;1.30;;;16.60;99.90;;;;;;5116678;27;20034;-82
2023/08/01 05:59:41;;;;;;;3.33;1.60;;;16.70;99.90;;;;;;5092279;27;20042;-82
2023/08/01 06:02:06;;;;;;;2.72;1.35;;;16.70;99.90;;;;;;5106372;27;20042;-81
2023/08/01 06:04:32;;;;;;;2.35;1.70;;;16.90;99.90;;;;;;5091168;27;20565;-83
2023/08/01 06:06:58;;;;;;;2.17;1.30;;;17.00;99.90;;;;;;5080212;27;20050;-82
2023/08/01 06:09:24;;;;;;;3.33;1.40;;;16.80;99.90;;;;;;5102002;27;20048;-82
2023/08/01 06:11:50;;;;;;;2.47;1.58;;;16.80;99.90;;;;;;5091049;27;20036;-82
2023/08/01 06:14:16;;;;;;;4.28;1.52;;;16.80;99.90;;;;;;5104866;27;20408;-82
2023/08/01 06:16:42;;;;;;;3.85;1.67;;;16.70;99.90;;;;;;5104762;27;20195;-82
2023/08/01 06:19:08;;;;;;;3.58;1.50;;;16.70;99.90;;;;;;5105618;27;20062;-82
2023/08/01 06:21:34;;;;;;;3.28;1.42;;;16.70;99.90;;;;;;5091514;27;20370;-82
2023/08/01 06:23:59;;;;;;;5.07;1.63;;;16.60;99.90;;;;;;5092769;27;20420;-82
2023/08/01 06:26:28;;;;;;;2.60;1.40;;;16.50;99.90;;;;;;5092860;27;20045;-82
2023/08/01 06:28:53;;;;;;;2.92;1.60;;;16.40;99.90;;;;;;5099323;27;20528;-82
2023/08/01 06:31:22;;;;;;;4.03;1.70;;;16.40;99.90;;;;;;5091320;27;20494;-82
2023/08/01 06:33:48;;;;;;;1.83;1.40;;;16.20;99.90;;;;;;5129004;27;20046;-82
2023/08/01 06:36:16;;;;;;;5.43;2.00;;;16.30;99.90;;;;;;5093161;27;20431;-81
2023/08/01 06:38:42;;;;;;;3.85;1.75;;;16.40;99.90;;;;;;5094576;27;20161;-83
2023/08/01 06:41:08;;;;;;;4.43;1.80;;;16.40;99.90;;;;;;5108132;27;20070;-82
2023/08/01 06:43:33;;;;;;;3.53;1.70;;;16.50;99.90;;;;;;5110087;27;20082;-81
2023/08/01 06:45:59;;;;;;;4.85;1.95;;;16.60;99.90;;;;;;5106196;27;20044;-82
2023/08/01 06:48:25;;;;;;;2.17;1.60;;;16.60;99.90;;;;;;5128172;27;20427;-82
2023/08/01 06:50:50;;;;;;;5.18;2.25;;;16.70;99.90;;;;;;5120565;27;20080;-82
2023/08/01 06:53:16;;;;;;;3.92;1.95;;;16.70;99.90;;;;;;5088072;27;20929;-81
2023/08/01 06:55:42;;;;;;;4.28;1.80;;;16.80;99.90;;;;;;5110430;27;20131;-82
2023/08/01 06:58:08;;;;;;;3.67;1.70;;;16.90;99.90;;;;;;5110775;27;20049;-81
2023/08/01 07:00:37;;;;;;;4.55;2.20;;;16.90;99.90;;;;;;5112814;27;20607;-81
2023/08/01 07:03:02;;;;;;;5.65;2.05;;;17.20;99.90;;;;;;5131692;27;20096;-82
2023/08/01 07:05:29;;;;;;;4.57;1.90;;;17.30;99.90;;;;;;5099167;27;20043;-82
2023/08/01 07:07:54;;;;;;;4.07;1.85;;;17.40;99.90;;;;;;5083366;27;20045;-82
2023/08/01 07:10:20;;;;;;;4.97;1.92;;;17.40;99.90;;;;;;5089213;27;20036;-82
2023/08/01 07:12:46;;;;;;;3.17;1.65;;;17.40;99.90;;;;;;5082636;27;20082;-82
2023/08/01 07:15:11;;;;;;;4.07;1.73;;;17.70;99.90;;;;;;5103314;27;20043;-82
2023/08/01 07:17:40;;;;;;;3.80;1.58;;;17.60;99.90;;;;;;5088233;27;20521;-82
2023/08/01 07:20:12;;;;;;;5.40;1.80;;;17.50;99.90;;;;;;5092834;27;20034;-83
2023/08/01 07:22:38;;;;;;;3.22;1.38;;;17.40;99.90;;;;;;5090723;27;20082;-82
2023/08/01 07:25:04;;;;;;;4.18;1.50;;;17.30;99.90;;;;;;5099935;27;20110;-82
2023/08/01 07:27:29;;;;;;;4.00;1.52;;;17.30;99.90;;;;;;5080820;27;20043;-82
2023/08/01 07:29:55;;;;;;;3.70;1.40;;;17.10;99.90;;;;;;5091733;27;20035;-83
2023/08/01 07:32:23;;;;;;;5.00;1.40;;;17.00;99.90;;;;;;5106125;27;20157;-82
2023/08/01 07:34:49;;;;;;;5.10;1.60;;;17.10;99.90;;;;;;5100811;27;20103;-82
2023/08/01 07:37:14;;;;;;;3.78;1.60;;;17.10;99.90;;;;;;5083084;27;20035;-82
2023/08/01 07:39:40;;;;;;;3.15;1.45;;;17.10;99.90;;;;;;5090937;27;20167;-82
2023/08/01 07:42:05;;;;;;;7.90;1.80;;;17.10;99.90;;;;;;5082699;27;20207;-82
2023/08/01 07:44:31;;;;;;;3.67;1.63;;;17.00;99.90;;;;;;5084629;27;20071;-82
2023/08/01 07:46:57;;;;;;;3.47;1.10;;;17.00;99.90;;;;;;5104034;27;20042;-82
2023/08/01 07:49:23;;;;;;;2.67;1.20;;;17.00;99.90;;;;;;5106546;27;20933;-82
2023/08/01 07:51:49;;;;;;;2.45;1.40;;;17.00;99.90;;;;;;5082016;27;20047;-81
2023/08/01 07:54:14;;;;;;;5.55;1.73;;;16.80;99.90;;;;;;5087903;27;20088;-81
2023/08/01 07:56:40;;;;;;;5.55;1.42;;;16.60;99.90;;;;;;5092090;27;20433;-82
2023/08/01 07:59:06;;;;;;;3.83;1.20;;;16.60;99.90;;;;;;5117479;27;20207;-82
2023/08/01 08:01:31;;;;;;;2.53;1.17;;;16.50;99.90;;;;;;5081055;27;20087;-82
2023/08/01 08:03:57;;;;;;;2.78;0.98;;;16.60;99.90;;;;;;5087358;27;20035;-82
2023/08/01 08:06:23;;;;;;;2.08;1.30;;;16.70;99.90;;;;;;5097311;27;20066;-82
2023/08/01 08:08:50;;;;;;;4.65;1.25;;;16.80;99.90;;;;;;5117102;27;20056;-82
2023/08/01 08:11:16;;;;;;;4.38;1.23;;;17.10;99.90;;;;;;5083770;27;20027;-82
2023/08/01 08:13:42;;;;;;;2.72;1.27;;;17.40;99.90;;;;;;5104664;27;20744;-82
2023/08/01 08:16:07;;;;;;;2.95;1.10;;;17.20;99.90;;;;;;5103484;27;20091;-82
2023/08/01 08:18:33;;;;;;;4.38;1.48;;;17.10;99.90;;;;;;5103042;27;20044;-82
2023/08/01 08:20:59;;;;;;;3.20;1.20;;;17.10;99.90;;;;;;5114365;27;20046;-82
2023/08/01 08:23:25;;;;;;;4.05;1.40;;;17.00;99.90;;;;;;5111269;27;20125;-82
2023/08/01 08:25:50;;;;;;;4.57;1.15;;;16.90;99.90;;;;;;5110388;27;20042;-82
2023/08/01 08:28:29;;;;;;;3.78;1.20;;;16.80;99.90;;;;;;5105211;27;20035;-82
2023/08/01 08:30:55;;;;;;;3.08;1.27;;;16.80;99.90;;;;;;5103476;27;20051;-82
2023/08/01 08:33:21;;;;;;;2.55;1.05;;;16.60;99.90;;;;;;5103785;27;20035;-82
2023/08/01 08:35:47;;;;;;;3.30;1.20;;;16.70;99.90;;;;;;5078242;27;20446;-83
2023/08/01 08:38:13;;;;;;;3.53;1.05;;;16.40;99.90;;;;;;5085769;27;20062;-83
2023/08/01 08:40:43;;;;;;;2.75;0.85;;;16.60;99.90;;;;;;5094317;27;20248;-82
2023/08/01 08:43:11;;;;;;;5.28;1.20;;;16.50;99.90;;;;;;5090684;27;20034;-82
2023/08/01 08:45:41;;;;;;;2.75;1.30;;;16.60;99.90;;;;;;5083110;27;20070;-82
2023/08/01 08:48:12;;;;;;;3.10;1.48;;;16.50;99.90;;;;;;5100308;27;20075;-82
2023/08/01 08:50:39;;;;;;;3.25;1.40;;;16.50;99.90;;;;;;5097102;27;20036;-82
2023/08/01 08:53:12;;;;;;;3.20;1.40;;;16.60;99.90;;;;;;5088070;27;20501;-82
2023/08/01 08:55:41;;;;;;;2.60;1.35;;;16.70;99.90;;;;;;5109043;27;20084;-82
2023/08/01 08:58:08;;;;;;;3.88;1.30;;;16.60;99.90;;;;;;5114413;27;20043;-82
2023/08/01 09:00:35;;;;;;;2.67;1.42;;;16.80;99.90;;;;;;5112334;27;20031;-82
2023/08/01 09:03:01;;;;;;;2.78;1.45;;;17.20;99.90;;;;;;5109735;27;20038;-82
2023/08/01 09:05:30;;;;;;;3.03;1.40;;;17.30;99.90;;;;;;5099027;27;20043;-83
2023/08/01 09:07:58;;;;;;;3.55;1.20;;;17.30;99.90;;;;;;5087532;27;20049;-82
2023/08/01 09:10:24;;;;;;;3.92;1.50;;;17.40;99.90;;;;;;5110315;27;20038;-82
2023/08/01 09:12:52;;;;;;;3.38;1.48;;;17.40;99.90;;;;;;5091778;27;20035;-82
2023/08/01 09:15:18;;;;;;;5.25;1.67;;;17.90;99.90;;;;;;5089937;27;20973;-82
2023/08/01 09:17:49;;;;;;;4.72;1.50;;;18.10;99.90;;;;;;5110914;27;20043;-82
2023/08/01 09:20:15;;;;;;;3.58;1.50;;;18.00;99.90;;;;;;5116623;27;20039;-82
2023/08/01 09:22:45;;;;;;;3.10;1.38;;;17.90;99.90;;;;;;5098194;27;20031;-82
2023/08/01 09:25:11;;;;;;;2.13;1.35;;;17.90;99.90;;;;;;5128666;27;20588;-82
2023/08/01 09:27:37;;;;;;;2.58;1.20;;;17.50;99.90;;;;;;5126267;27;20169;-82
2023/08/01 09:30:20;;;;;;;2.75;1.40;;;17.20;99.90;;;;;;5093344;27;20129;-82
2023/08/01 09:32:56;;;;;;;3.50;1.27;;;17.50;99.90;;;;;;5095020;27;20050;-82
2023/08/01 09:35:22;;;;;;;2.55;1.13;;;17.20;99.90;;;;;;5119299;27;20511;-83
2023/08/01 09:37:48;;;;;;;2.63;1.23;;;17.30;99.90;;;;;;5085591;27;20559;-83
2023/08/01 09:40:14;;;;;;;4.40;1.40;;;17.50;99.90;;;;;;5094210;27;20031;-82
2023/08/01 09:42:41;;;;;;;3.80;1.38;;;17.80;99.90;;;;;;5086627;27;20091;-83
2023/08/01 09:45:13;;;;;;;2.55;1.42;;;17.90;99.90;;;;;;5117844;27;20047;-82
2023/08/01 09:47:39;;;;;;;1.60;1.35;;;17.80;99.90;;;;;;5095694;27;20053;-82
2023/08/01 09:50:05;;;;;;;4.22;1.30;;;17.80;99.90;;;;;;5090832;27;20035;-81
2023/08/01 09:52:31;;;;;;;2.33;1.15;;;17.70;99.90;;;;;;5086890;27;20322;-82
2023/08/01 09:54:56;;;;;;;3.25;1.30;;;17.80;99.90;;;;;;5116226;27;20038;-82
2023/08/01 09:57:22;;;;;;;1.35;1.00;;;17.80;99.90;;;;;;5091684;27;20358;-82
2023/08/01 09:59:49;;;;;;;4.00;1.27;;;17.90;99.90;;;;;;5112466;27;20035;-82
2023/08/01 10:02:18;;;;;;;3.80;1.17;;;17.90;99.90;;;;;;5107304;27;20046;-82
2023/08/01 10:04:46;;;;;;;3.70;1.10;;;18.00;99.90;;;;;;5092078;27;20099;-82
2023/08/01 10:07:13;;;;;;;2.72;1.10;;;17.90;99.90;;;;;;5093391;27;20039;-82
2023/08/01 10:09:40;;;;;;;1.90;1.00;;;17.90;99.90;;;;;;5110756;27;20445;-85
2023/08/01 10:12:07;;;;;;;4.35;1.50;;;17.90;99.90;;;;;;5091716;27;20039;-85
2023/08/01 10:14:33;;;;;;;4.90;1.42;;;17.50;99.90;;;;;;5104044;27;20031;-86
2023/08/01 10:16:59;;;;;;;2.58;1.20;;;17.30;99.90;;;;;;5100412;27;20429;-86
2023/08/01 10:19:27;;;;;;;3.72;1.50;;;17.30;99.90;;;;;;5106703;27;20066;-81
2023/08/01 10:21:54;;;;;;;3.65;1.60;;;17.20;99.90;;;;;;5102160;27;20061;-81
2023/08/01 10:24:20;;;;;;;5.63;1.63;;;17.10;99.90;;;;;;5100200;27;20121;-82
2023/08/01 10:26:46;;;;;;;4.07;1.40;;;16.80;99.90;;;;;;5095627;27;20050;-82
2023/08/01 10:29:12;;;;;;;2.92;1.58;;;16.90;99.90;;;;;;5086472;27;20470;-85
2023/08/01 10:31:38;;;;;;;5.72;1.52;;;17.10;99.90;;;;;;5092972;27;20115;-85
2023/08/01 10:34:06;;;;;;;4.50;1.80;;;17.40;99.90;;;;;;5090163;27;20489;-85
2023/08/01 10:36:32;;;;;;;4.43;1.80;;;17.50;99.90;;;;;;5090273;27;20043;-84
2023/08/01 10:39:01;;;;;;;4.57;1.73;;;17.70;99.90;;;;;;5115969;27;20534;-84
2023/08/01 10:41:34;;;;;;;4.40;2.15;;;17.90;99.90;;;;;;5097422;27;20051;-85
2023/08/01 10:44:12;;;;;;;7.82;2.40;;;18.20;99.90;;;;;;5130532;27;20480;-84
2023/08/01 10:46:57;;;;;;;5.43;1.90;;;18.90;99.90;;;;;;5105661;27;20042;-84
2023/08/01 10:49:33;;;;;;;;;;;19.40;99.90;;;;;;5099001;27;20494;-84
2023/08/01 10:51:58;;;;;;;;;;;19.50;99.90;;;;;;5103153;27;19919;-84
2023/08/01 10:54:25;;;;;;;5.15;1.98;;;19.00;99.90;;;;;;5106442;27;19965;-84
2023/08/01 10:56:54;;;;;;;5.20;1.80;;;18.90;99.90;;;;;;5088509;27;20035;-85
2023/08/01 10:59:21;;;;;;;2.92;1.42;;;18.30;99.90;;;;;;5088845;27;20039;-85
2023/08/01 11:01:57;;;;;;;6.25;1.95;;;17.90;99.90;;;;;;5104242;27;20045;-86
2023/08/01 11:04:23;;;;;;;2.65;1.30;;;17.40;99.90;;;;;;5119511;27;20084;-85
2023/08/01 11:06:52;;;;;;;3.63;1.85;;;17.30;99.90;;;;;;5104270;27;20085;-85
2023/08/01 11:09:26;;;;;;;1.83;1.23;;;17.60;99.90;;;;;;5099450;27;20075;-85
2023/08/01 11:11:57;;;;;;;4.00;1.50;;;18.00;99.90;;;;;;5106986;27;20043;-85
2023/08/01 11:14:25;;;;;;;3.25;1.52;;;18.50;99.90;;;;;;5092195;27;20039;-85
2023/08/01 11:16:50;;;;;;;5.35;1.77;;;18.80;99.90;;;;;;5108376;27;20035;-85
2023/08/01 11:19:20;;;;;;;5.05;1.92;;;19.30;99.90;;;;;;5104500;27;20034;-85
2023/08/01 11:21:49;;;;;;;6.55;1.90;;;19.50;99.90;;;;;;5083931;27;20046;-85
2023/08/01 11:24:16;;;;;;;4.55;1.40;;;19.50;99.90;;;;;;5087546;27;20030;-85
2023/08/01 11:26:43;;;;;;;3.40;1.48;;;19.70;99.90;;;;;;5105901;27;20050;-84
2023/08/01 11:29:13;;;;;;;4.43;1.15;;;19.10;99.90;;;;;;5102565;27;20453;-84
2023/08/01 11:31:41;;;;;;;4.55;1.98;;;19.60;99.90;;;;;;5108662;27;20116;-84
2023/08/01 11:34:09;;;;;;;4.30;1.40;;;19.80;99.90;;;;;;5104038;27;20122;-85
2023/08/01 11:36:38;;;;;;;5.07;1.27;;;20.30;99.90;;;;;;5103639;27;20550;-85
2023/08/01 11:39:04;;;;;;;8.40;1.60;;;20.40;99.90;;;;;;5087200;27;20031;-84
2023/08/01 11:41:30;;;;;;;5.00;1.30;;;20.90;99.90;;;;;;5099798;27;20074;-84
2023/08/01 11:44:03;;;;;;;5.55;1.40;;;20.60;99.90;;;;;;5094907;27;20036;-85
2023/08/01 11:46:32;;;;;;;4.65;1.10;;;20.50;99.90;;;;;;5079367;27;20504;-84
2023/08/01 11:48:59;;;;;;;4.00;1.13;;;20.00;99.90;;;;;;5108411;27;20360;-84
2023/08/01 11:51:25;;;;;;;4.78;1.15;;;19.90;99.90;;;;;;5107818;27;20062;-84
2023/08/01 11:54:01;;;;;;;5.07;1.02;;;20.30;99.90;;;;;;5095764;27;20039;-84
2023/08/01 11:56:27;;;;;;;1.95;0.90;;;20.10;99.90;;;;;;5101155;27;20115;-85
2023/08/01 11:58:53;;;;;;;3.40;0.90;;;20.20;99.90;;;;;;5102345;27;20467;-84
2023/08/01 12:01:19;;;;;;;3.70;1.10;;;20.80;99.90;;;;;;5084651;27;20039;-85
2023/08/01 12:03:49;;;;;;;2.47;0.95;;;20.20;99.90;;;;;;5130622;27;20114;-85
2023/08/01 12:06:15;;;;;;;3.58;1.08;;;20.10;99.90;;;;;;5095548;27;20070;-84
2023/08/01 12:08:46;;;;;;;4.10;1.23;;;19.60;99.90;;;;;;5084867;27;20504;-84
2023/08/01 12:11:20;;;;;;;5.88;1.52;;;19.30;99.90;;;;;;5086464;27;20054;-85
2023/08/01 12:14:08;;;;;;;7.35;1.55;;;19.00;99.90;;;;;;5101783;27;20454;-84
2023/08/01 12:16:33;;;;;;;5.93;2.03;;;18.90;99.90;;;;;;5099606;27;20912;-82
2023/08/01 12:18:59;;;;;;;5.80;1.70;;;19.00;99.90;;;;;;5089561;27;20041;-82
2023/08/01 12:21:25;;;;;;;3.47;1.50;;;18.80;99.90;;;;;;5086719;27;20042;-82
2023/08/01 12:23:50;;;;;;;5.13;1.52;;;18.70;99.90;;;;;;5123297;27;20049;-82
2023/08/01 12:26:16;;;;;;;2.97;1.60;;;18.60;99.90;;;;;;5093415;27;20035;-82
2023/08/01 12:28:41;;;;;;;3.97;1.40;;;18.80;99.90;;;;;;5099141;27;20367;-82
2023/08/01 12:31:07;;;;;;;3.92;1.33;;;19.50;99.90;;;;;;5121154;27;20474;-83
2023/08/01 12:33:33;;;;;;;4.13;1.10;;;19.30;99.90;;;;;;5095389;27;20035;-83
2023/08/01 12:36:00;;;;;;;3.30;1.20;;;19.10;99.90;;;;;;5102872;27;20034;-82
2023/08/01 12:38:26;;;;;;;6.53;1.50;;;18.90;99.90;;;;;;5093145;27;20047;-82
2023/08/01 12:40:52;;;;;;;7.22;2.38;;;19.50;99.90;;;;;;5094274;27;20164;-83
2023/08/01 12:43:17;;;;;;;2.80;1.20;;;19.70;99.90;;;;;;5113588;27;20464;-82